sensor_id;sensor_type;location;lat;lon;timestamp;pressure;altitude;pressure_sealevel;temperature;humidity
28181;BME280;15464;50.988;10.318;2022-08-21T00:00:06;99023.88;;;16.25;81.87
28181;BME280;15464;50.988;10.318;2022-08-21T00:02:33;99021.56;;;16.22;83.01
28181;BME280;15464;50.988;10.318;2022-08-21T00:04:59;99014.69;;;16.19;82.26
28181;BME280;15464;50.988;10.318;2022-08-21T00:07:26;99017.03;;;16.14;81.92
28181;BME280;15464;50.988;10.318;2022-08-21T00:09:52;99015.34;;;16.13;82.71
28181;BME280;15464;50.988;10.318;2022-08-21T00:12:19;99021.69;;;16.12;84.82
28181;BME280;15464;50.988;10.318;2022-08-21T00:14:46;99022.19;;;16.07;85.78
28181;BME280;15464;50.988;10.318;2022-08-21T00:17:12;99020.84;;;16.03;84.10
28181;BME280;15464;50.988;10.318;2022-08-21T00:19:39;99017.50;;;16.01;84.06
28181;BME280;15464;50.988;10.318;2022-08-21T00:22:05;99021.16;;;16.00;82.95
28181;BME280;15464;50.988;10.318;2022-08-21T00:24:32;99017.84;;;15.98;83.22
28181;BME280;15464;50.988;10.318;2022-08-21T00:26:58;99011.13;;;15.94;83.60
28181;BME280;15464;50.988;10.318;2022-08-21T00:29:25;99013.97;;;15.93;83.18
28181;BME280;15464;50.988;10.318;2022-08-21T00:31:52;99018.81;;;15.89;83.71
28181;BME280;15464;50.988;10.318;2022-08-21T00:34:18;99015.78;;;15.84;83.73
28181;BME280;15464;50.988;10.318;2022-08-21T00:36:45;99024.81;;;15.83;83.39
28181;BME280;15464;50.988;10.318;2022-08-21T00:39:11;99021.78;;;15.78;83.41
28181;BME280;15464;50.988;10.318;2022-08-21T00:41:38;99020.09;;;15.77;83.22
28181;BME280;15464;50.988;10.318;2022-08-21T00:44:06;99016.09;;;15.73;82.95
28181;BME280;15464;50.988;10.318;2022-08-21T00:46:33;99020.75;;;15.71;82.76
28181;BME280;15464;50.988;10.318;2022-08-21T00:48:59;99023.91;;;15.66;83.25
28181;BME280;15464;50.988;10.318;2022-08-21T00:51:32;99020.72;;;15.63;83.56
28181;BME280;15464;50.988;10.318;2022-08-21T00:54:04;99018.38;;;15.60;82.45
28181;BME280;15464;50.988;10.318;2022-08-21T00:56:35;99020.34;;;15.58;85.33
28181;BME280;15464;50.988;10.318;2022-08-21T00:59:03;99022.69;;;15.53;85.25
28181;BME280;15464;50.988;10.318;2022-08-21T01:01:30;99018.94;;;15.46;85.38
28181;BME280;15464;50.988;10.318;2022-08-21T01:03:56;99011.91;;;15.45;84.32
28181;BME280;15464;50.988;10.318;2022-08-21T01:06:23;99018.94;;;15.46;84.72
28181;BME280;15464;50.988;10.318;2022-08-21T01:08:50;99016.25;;;15.46;83.95
28181;BME280;15464;50.988;10.318;2022-08-21T01:11:17;99022.44;;;15.46;83.90
28181;BME280;15464;50.988;10.318;2022-08-21T01:13:44;99023.44;;;15.45;83.82
28181;BME280;15464;50.988;10.318;2022-08-21T01:16:13;99011.59;;;15.48;83.78
28181;BME280;15464;50.988;10.318;2022-08-21T01:18:41;99010.06;;;15.45;84.15
28181;BME280;15464;50.988;10.318;2022-08-21T01:23:38;99018.59;;;15.41;84.68
28181;BME280;15464;50.988;10.318;2022-08-21T01:26:05;99012.41;;;15.40;85.24
28181;BME280;15464;50.988;10.318;2022-08-21T01:28:33;99009.88;;;15.39;85.19
28181;BME280;15464;50.988;10.318;2022-08-21T01:31:01;99006.84;;;15.33;85.20
28181;BME280;15464;50.988;10.318;2022-08-21T01:33:27;99015.84;;;15.32;84.40
28181;BME280;15464;50.988;10.318;2022-08-21T01:35:54;99008.84;;;15.31;85.05
28181;BME280;15464;50.988;10.318;2022-08-21T01:38:20;99009.81;;;15.30;84.36
28181;BME280;15464;50.988;10.318;2022-08-21T01:40:47;99010.84;;;15.29;84.29
28181;BME280;15464;50.988;10.318;2022-08-21T01:43:13;99011.16;;;15.26;85.31
28181;BME280;15464;50.988;10.318;2022-08-21T01:45:40;99012.47;;;15.22;85.24
28181;BME280;15464;50.988;10.318;2022-08-21T01:48:06;99007.44;;;15.19;84.96
28181;BME280;15464;50.988;10.318;2022-08-21T01:50:33;99015.09;;;15.14;85.34
28181;BME280;15464;50.988;10.318;2022-08-21T01:53:00;99005.72;;;15.10;84.46
28181;BME280;15464;50.988;10.318;2022-08-21T01:55:26;99004.75;;;15.11;83.98
28181;BME280;15464;50.988;10.318;2022-08-21T01:57:53;99001.22;;;15.11;84.13
28181;BME280;15464;50.988;10.318;2022-08-21T02:00:21;99005.03;;;15.08;84.96
28181;BME280;15464;50.988;10.318;2022-08-21T02:02:51;99006.19;;;15.06;84.97
28181;BME280;15464;50.988;10.318;2022-08-21T02:05:18;99004.97;;;15.00;85.18
28181;BME280;15464;50.988;10.318;2022-08-21T02:07:47;99007.00;;;14.98;85.45
28181;BME280;15464;50.988;10.318;2022-08-21T02:10:15;99010.28;;;14.92;85.25
28181;BME280;15464;50.988;10.318;2022-08-21T02:12:42;99001.59;;;14.90;85.53
28181;BME280;15464;50.988;10.318;2022-08-21T02:15:08;99015.25;;;14.87;84.60
28181;BME280;15464;50.988;10.318;2022-08-21T02:20:05;99007.84;;;14.81;83.57
28181;BME280;15464;50.988;10.318;2022-08-21T02:22:32;98996.50;;;14.79;83.89
28181;BME280;15464;50.988;10.318;2022-08-21T02:24:58;99004.81;;;14.76;83.88
28181;BME280;15464;50.988;10.318;2022-08-21T02:27:25;99008.81;;;14.72;84.13
28181;BME280;15464;50.988;10.318;2022-08-21T02:29:53;99004.78;;;14.68;84.50
28181;BME280;15464;50.988;10.318;2022-08-21T02:32:20;98993.69;;;14.63;84.70
28181;BME280;15464;50.988;10.318;2022-08-21T02:34:47;99002.03;;;14.60;85.17
28181;BME280;15464;50.988;10.318;2022-08-21T02:37:15;98998.16;;;14.54;85.21
28181;BME280;15464;50.988;10.318;2022-08-21T02:39:41;99000.13;;;14.52;85.23
28181;BME280;15464;50.988;10.318;2022-08-21T02:42:07;98991.63;;;14.48;84.93
28181;BME280;15464;50.988;10.318;2022-08-21T02:44:34;99002.44;;;14.47;85.14
28181;BME280;15464;50.988;10.318;2022-08-21T02:47:00;98999.06;;;14.45;84.98
28181;BME280;15464;50.988;10.318;2022-08-21T02:49:27;99000.06;;;14.44;85.15
28181;BME280;15464;50.988;10.318;2022-08-21T02:51:53;98998.56;;;14.41;84.60
28181;BME280;15464;50.988;10.318;2022-08-21T02:54:20;98994.34;;;14.39;84.80
28181;BME280;15464;50.988;10.318;2022-08-21T02:56:47;98997.31;;;14.36;85.16
28181;BME280;15464;50.988;10.318;2022-08-21T02:59:13;99001.81;;;14.35;84.82
28181;BME280;15464;50.988;10.318;2022-08-21T03:01:40;98999.44;;;14.32;84.81
28181;BME280;15464;50.988;10.318;2022-08-21T03:04:06;98998.22;;;14.27;85.09
28181;BME280;15464;50.988;10.318;2022-08-21T03:06:33;98994.69;;;14.26;85.15
28181;BME280;15464;50.988;10.318;2022-08-21T03:09:00;98997.00;;;14.21;85.99
28181;BME280;15464;50.988;10.318;2022-08-21T03:11:26;99006.31;;;14.17;86.23
28181;BME280;15464;50.988;10.318;2022-08-21T03:13:53;99001.25;;;14.14;85.08
28181;BME280;15464;50.988;10.318;2022-08-21T03:16:19;98998.75;;;14.12;85.48
28181;BME280;15464;50.988;10.318;2022-08-21T03:18:46;98999.34;;;14.06;86.45
28181;BME280;15464;50.988;10.318;2022-08-21T03:21:13;98997.00;;;14.03;86.35
28181;BME280;15464;50.988;10.318;2022-08-21T03:23:40;98991.81;;;14.02;86.02
28181;BME280;15464;50.988;10.318;2022-08-21T03:26:09;98990.13;;;14.01;86.09
28181;BME280;15464;50.988;10.318;2022-08-21T03:28:36;98990.44;;;13.98;85.54
28181;BME280;15464;50.988;10.318;2022-08-21T03:31:03;98991.44;;;13.97;85.43
28181;BME280;15464;50.988;10.318;2022-08-21T03:33:30;98992.72;;;13.93;85.80
28181;BME280;15464;50.988;10.318;2022-08-21T03:36:08;99002.00;;;13.89;86.86
28181;BME280;15464;50.988;10.318;2022-08-21T03:38:36;99002.31;;;13.86;87.87
28181;BME280;15464;50.988;10.318;2022-08-21T03:41:03;98999.94;;;13.83;87.08
28181;BME280;15464;50.988;10.318;2022-08-21T03:43:31;99000.06;;;13.81;86.17
28181;BME280;15464;50.988;10.318;2022-08-21T03:45:58;99001.91;;;13.81;86.69
28181;BME280;15464;50.988;10.318;2022-08-21T03:48:26;99002.22;;;13.78;85.54
28181;BME280;15464;50.988;10.318;2022-08-21T03:50:52;98996.88;;;13.78;86.11
28181;BME280;15464;50.988;10.318;2022-08-21T03:53:19;98990.25;;;13.82;85.94
28181;BME280;15464;50.988;10.318;2022-08-21T03:55:46;99003.19;;;13.77;85.93
28181;BME280;15464;50.988;10.318;2022-08-21T03:58:13;99009.84;;;13.72;87.07
28181;BME280;15464;50.988;10.318;2022-08-21T04:00:43;99007.91;;;13.65;88.13
28181;BME280;15464;50.988;10.318;2022-08-21T04:03:09;99014.94;;;13.56;88.53
28181;BME280;15464;50.988;10.318;2022-08-21T04:05:36;99011.44;;;13.56;87.47
28181;BME280;15464;50.988;10.318;2022-08-21T04:08:04;99011.44;;;13.56;86.68
28181;BME280;15464;50.988;10.318;2022-08-21T04:10:32;99021.28;;;13.55;85.96
28181;BME280;15464;50.988;10.318;2022-08-21T04:12:58;99020.44;;;13.55;86.23
28181;BME280;15464;50.988;10.318;2022-08-21T04:15:25;99022.09;;;13.56;85.28
28181;BME280;15464;50.988;10.318;2022-08-21T04:17:52;99029.44;;;13.54;86.09
28181;BME280;15464;50.988;10.318;2022-08-21T04:20:19;99030.56;;;13.51;86.67
28181;BME280;15464;50.988;10.318;2022-08-21T04:22:47;99032.50;;;13.49;86.55
28181;BME280;15464;50.988;10.318;2022-08-21T04:25:14;99032.81;;;13.46;87.32
28181;BME280;15464;50.988;10.318;2022-08-21T04:27:41;99037.75;;;13.41;88.33
28181;BME280;15464;50.988;10.318;2022-08-21T04:30:08;99040.69;;;13.38;87.35
28181;BME280;15464;50.988;10.318;2022-08-21T04:32:36;99043.22;;;13.40;87.81
28181;BME280;15464;50.988;10.318;2022-08-21T04:35:07;99040.69;;;13.38;87.55
28181;BME280;15464;50.988;10.318;2022-08-21T04:37:34;99045.19;;;13.38;87.05
28181;BME280;15464;50.988;10.318;2022-08-21T04:40:08;99048.03;;;13.36;87.32
28181;BME280;15464;50.988;10.318;2022-08-21T04:42:41;99050.97;;;13.33;87.79
28181;BME280;15464;50.988;10.318;2022-08-21T04:45:08;99052.66;;;13.34;87.40
28181;BME280;15464;50.988;10.318;2022-08-21T04:47:35;99046.34;;;13.35;87.48
28181;BME280;15464;50.988;10.318;2022-08-21T04:50:18;99052.34;;;13.37;89.16
28181;BME280;15464;50.988;10.318;2022-08-21T04:52:45;99060.50;;;13.36;88.86
28181;BME280;15464;50.988;10.318;2022-08-21T04:55:12;99059.22;;;13.40;89.74
28181;BME280;15464;50.988;10.318;2022-08-21T04:57:39;99051.09;;;13.41;89.63
28181;BME280;15464;50.988;10.318;2022-08-21T05:00:14;99058.09;;;13.42;91.11
28181;BME280;15464;50.988;10.318;2022-08-21T05:02:41;99065.78;;;13.45;91.44
28181;BME280;15464;50.988;10.318;2022-08-21T05:05:08;99073.31;;;13.50;91.86
28181;BME280;15464;50.988;10.318;2022-08-21T05:07:34;99065.91;;;13.53;91.07
28181;BME280;15464;50.988;10.318;2022-08-21T05:10:08;99065.31;;;13.59;92.50
28181;BME280;15464;50.988;10.318;2022-08-21T05:12:37;99060.22;;;13.66;92.30
28181;BME280;15464;50.988;10.318;2022-08-21T05:15:04;99066.09;;;13.69;91.08
28181;BME280;15464;50.988;10.318;2022-08-21T05:17:31;99065.50;;;13.76;92.14
28181;BME280;15464;50.988;10.318;2022-08-21T05:19:57;99075.75;;;13.80;94.66
28181;BME280;15464;50.988;10.318;2022-08-21T05:22:24;99072.75;;;13.83;94.68
28181;BME280;15464;50.988;10.318;2022-08-21T05:24:51;99070.63;;;13.87;93.40
28181;BME280;15464;50.988;10.318;2022-08-21T05:27:18;99071.31;;;13.89;93.51
28181;BME280;15464;50.988;10.318;2022-08-21T05:29:45;99074.56;;;13.92;93.25
28181;BME280;15464;50.988;10.318;2022-08-21T05:32:11;99082.81;;;13.99;92.46
28181;BME280;15464;50.988;10.318;2022-08-21T05:34:38;99069.53;;;14.07;92.74
28181;BME280;15464;50.988;10.318;2022-08-21T05:37:05;99085.41;;;14.08;92.33
28181;BME280;15464;50.988;10.318;2022-08-21T05:39:33;99082.00;;;14.16;92.12
28181;BME280;15464;50.988;10.318;2022-08-21T05:42:19;99083.06;;;14.23;92.12
28181;BME280;15464;50.988;10.318;2022-08-21T05:44:45;99085.13;;;14.29;90.97
28181;BME280;15464;50.988;10.318;2022-08-21T05:47:13;99083.41;;;14.38;93.93
28181;BME280;15464;50.988;10.318;2022-08-21T05:49:41;99087.97;;;14.45;93.27
28181;BME280;15464;50.988;10.318;2022-08-21T05:52:07;99078.38;;;14.52;92.92
28181;BME280;15464;50.988;10.318;2022-08-21T05:54:35;99082.97;;;14.60;93.41
28181;BME280;15464;50.988;10.318;2022-08-21T05:57:02;99079.81;;;14.65;93.72
28181;BME280;15464;50.988;10.318;2022-08-21T05:59:29;99077.53;;;14.70;93.26
28181;BME280;15464;50.988;10.318;2022-08-21T06:01:55;99080.56;;;14.75;92.06
28181;BME280;15464;50.988;10.318;2022-08-21T06:04:22;99083.16;;;14.84;91.55
28181;BME280;15464;50.988;10.318;2022-08-21T06:06:48;99080.56;;;14.92;91.45
28181;BME280;15464;50.988;10.318;2022-08-21T06:09:15;99072.38;;;14.94;90.24
28181;BME280;15464;50.988;10.318;2022-08-21T06:11:41;99078.94;;;15.00;90.70
28181;BME280;15464;50.988;10.318;2022-08-21T06:14:08;99081.16;;;15.04;90.93
28181;BME280;15464;50.988;10.318;2022-08-21T06:16:34;99082.50;;;15.08;91.59
28181;BME280;15464;50.988;10.318;2022-08-21T06:19:01;99071.97;;;15.07;91.53
28181;BME280;15464;50.988;10.318;2022-08-21T06:21:28;99073.50;;;15.09;91.11
28181;BME280;15464;50.988;10.318;2022-08-21T06:23:55;99073.56;;;15.17;90.92
28181;BME280;15464;50.988;10.318;2022-08-21T06:26:21;99073.19;;;15.12;92.43
28181;BME280;15464;50.988;10.318;2022-08-21T06:28:48;99073.41;;;15.19;92.89
28181;BME280;15464;50.988;10.318;2022-08-21T06:31:19;99074.66;;;15.32;91.85
28181;BME280;15464;50.988;10.318;2022-08-21T06:33:46;99069.88;;;15.44;91.50
28181;BME280;15464;50.988;10.318;2022-08-21T06:36:13;99071.41;;;15.47;91.75
28181;BME280;15464;50.988;10.318;2022-08-21T06:38:39;99066.81;;;15.57;91.33
28181;BME280;15464;50.988;10.318;2022-08-21T06:41:06;99064.88;;;15.75;92.00
28181;BME280;15464;50.988;10.318;2022-08-21T06:43:35;99064.81;;;15.93;91.68
28181;BME280;15464;50.988;10.318;2022-08-21T06:46:05;99064.69;;;16.19;91.21
28181;BME280;15464;50.988;10.318;2022-08-21T06:48:31;99067.25;;;16.44;90.37
28181;BME280;15464;50.988;10.318;2022-08-21T06:51:00;99067.16;;;16.78;89.11
28181;BME280;15464;50.988;10.318;2022-08-21T06:53:26;99060.94;;;17.02;87.97
28181;BME280;15464;50.988;10.318;2022-08-21T06:55:53;99063.06;;;17.39;87.28
28181;BME280;15464;50.988;10.318;2022-08-21T06:58:20;99062.66;;;17.74;85.76
28181;BME280;15464;50.988;10.318;2022-08-21T07:00:47;99061.19;;;18.03;84.96
28181;BME280;15464;50.988;10.318;2022-08-21T07:03:18;99054.19;;;18.25;83.40
28181;BME280;15464;50.988;10.318;2022-08-21T07:05:45;99056.72;;;18.49;81.56
28181;BME280;15464;50.988;10.318;2022-08-21T07:10:39;99052.06;;;19.11;79.26
28181;BME280;15464;50.988;10.318;2022-08-21T07:13:06;99047.78;;;19.31;76.71
28181;BME280;15464;50.988;10.318;2022-08-21T07:15:33;99053.09;;;19.40;76.94
28181;BME280;15464;50.988;10.318;2022-08-21T07:17:59;99047.56;;;19.70;75.76
28181;BME280;15464;50.988;10.318;2022-08-21T07:20:26;99042.25;;;19.92;76.38
28181;BME280;15464;50.988;10.318;2022-08-21T07:22:53;99044.56;;;19.95;73.92
28181;BME280;15464;50.988;10.318;2022-08-21T07:25:20;99032.50;;;19.91;73.73
28181;BME280;15464;50.988;10.318;2022-08-21T07:27:46;99042.56;;;20.33;73.80
28181;BME280;15464;50.988;10.318;2022-08-21T07:30:13;99035.66;;;20.66;72.17
28181;BME280;15464;50.988;10.318;2022-08-21T07:32:39;99029.38;;;20.87;70.83
28181;BME280;15464;50.988;10.318;2022-08-21T07:35:06;99032.84;;;21.02;69.51
28181;BME280;15464;50.988;10.318;2022-08-21T07:37:33;99030.53;;;21.20;69.61
28181;BME280;15464;50.988;10.318;2022-08-21T07:39:59;99017.81;;;21.42;69.00
28181;BME280;15464;50.988;10.318;2022-08-21T07:42:26;99024.56;;;21.59;67.60
28181;BME280;15464;50.988;10.318;2022-08-21T07:44:54;99017.97;;;21.75;66.25
28181;BME280;15464;50.988;10.318;2022-08-21T07:47:21;99025.34;;;21.94;65.98
28181;BME280;15464;50.988;10.318;2022-08-21T07:50:07;99015.31;;;22.29;64.62
28181;BME280;15464;50.988;10.318;2022-08-21T07:52:34;99010.53;;;22.44;64.05
28181;BME280;15464;50.988;10.318;2022-08-21T07:55:01;99009.09;;;22.55;63.44
28181;BME280;15464;50.988;10.318;2022-08-21T07:57:31;99002.66;;;22.49;62.03
28181;BME280;15464;50.988;10.318;2022-08-21T07:59:58;99005.75;;;22.33;63.08
28181;BME280;15464;50.988;10.318;2022-08-21T08:02:26;98997.50;;;22.81;62.29
28181;BME280;15464;50.988;10.318;2022-08-21T08:04:52;99006.06;;;22.98;60.38
28181;BME280;15464;50.988;10.318;2022-08-21T08:07:19;99000.00;;;23.09;59.48
28181;BME280;15464;50.988;10.318;2022-08-21T08:09:46;98997.88;;;23.30;58.67
28181;BME280;15464;50.988;10.318;2022-08-21T08:12:12;99004.13;;;23.24;58.43
28181;BME280;15464;50.988;10.318;2022-08-21T08:14:38;99002.91;;;23.07;58.11
28181;BME280;15464;50.988;10.318;2022-08-21T08:17:05;98989.75;;;23.30;58.96
28181;BME280;15464;50.988;10.318;2022-08-21T08:19:32;98996.25;;;23.16;57.65
28181;BME280;15464;50.988;10.318;2022-08-21T08:21:58;98999.34;;;23.26;56.74
28181;BME280;15464;50.988;10.318;2022-08-21T08:24:25;98993.31;;;23.24;57.88
28181;BME280;15464;50.988;10.318;2022-08-21T08:26:51;98992.72;;;23.22;57.26
28181;BME280;15464;50.988;10.318;2022-08-21T08:29:19;98986.47;;;23.02;57.13
28181;BME280;15464;50.988;10.318;2022-08-21T08:31:46;98987.91;;;23.18;57.95
28181;BME280;15464;50.988;10.318;2022-08-21T08:34:12;98987.69;;;23.19;57.30
28181;BME280;15464;50.988;10.318;2022-08-21T08:36:50;98981.28;;;23.01;57.34
28181;BME280;15464;50.988;10.318;2022-08-21T08:39:16;98977.13;;;22.85;58.58
28181;BME280;15464;50.988;10.318;2022-08-21T08:44:50;98978.53;;;22.68;56.95
28181;BME280;15464;50.988;10.318;2022-08-21T08:47:21;98984.34;;;22.51;56.02
28181;BME280;15464;50.988;10.318;2022-08-21T08:52:20;98975.84;;;22.55;57.48
28181;BME280;15464;50.988;10.318;2022-08-21T08:54:58;98979.16;;;22.57;57.26
28181;BME280;15464;50.988;10.318;2022-08-21T08:57:27;98976.88;;;22.53;57.00
28181;BME280;15464;50.988;10.318;2022-08-21T08:59:55;98972.47;;;22.26;56.25
28181;BME280;15464;50.988;10.318;2022-08-21T09:02:22;98972.41;;;22.00;56.30
28181;BME280;15464;50.988;10.318;2022-08-21T09:04:54;98971.88;;;21.77;55.72
28181;BME280;15464;50.988;10.318;2022-08-21T09:07:42;98973.03;;;22.02;56.81
28181;BME280;15464;50.988;10.318;2022-08-21T09:15:12;98956.22;;;22.06;55.36
28181;BME280;15464;50.988;10.318;2022-08-21T09:17:48;98954.25;;;21.87;54.12
28181;BME280;15464;50.988;10.318;2022-08-21T09:20:28;98957.03;;;22.07;56.08
28181;BME280;15464;50.988;10.318;2022-08-21T09:25:34;98958.56;;;22.29;55.57
28181;BME280;15464;50.988;10.318;2022-08-21T09:28:07;98949.19;;;22.38;54.58
28181;BME280;15464;50.988;10.318;2022-08-21T09:30:34;98946.69;;;22.43;54.20
28181;BME280;15464;50.988;10.318;2022-08-21T09:33:01;98953.97;;;22.49;52.26
28181;BME280;15464;50.988;10.318;2022-08-21T09:35:27;98954.44;;;22.60;53.60
28181;BME280;15464;50.988;10.318;2022-08-21T09:37:56;98943.38;;;22.68;51.02
28181;BME280;15464;50.988;10.318;2022-08-21T09:40:37;98938.84;;;22.75;49.72
28181;BME280;15464;50.988;10.318;2022-08-21T09:43:29;98937.16;;;22.54;49.22
28181;BME280;15464;50.988;10.318;2022-08-21T09:46:06;98936.34;;;22.67;50.90
28181;BME280;15464;50.988;10.318;2022-08-21T09:48:43;98935.53;;;22.73;47.83
28181;BME280;15464;50.988;10.318;2022-08-21T09:51:14;98940.31;;;22.84;48.41
28181;BME280;15464;50.988;10.318;2022-08-21T09:53:45;98929.69;;;22.82;47.98
28181;BME280;15464;50.988;10.318;2022-08-21T09:56:17;98930.88;;;23.06;46.31
28181;BME280;15464;50.988;10.318;2022-08-21T09:59:12;98928.16;;;23.19;46.35
28181;BME280;15464;50.988;10.318;2022-08-21T10:01:42;98928.78;;;23.28;47.14
28181;BME280;15464;50.988;10.318;2022-08-21T10:04:09;98929.63;;;23.15;47.37
28181;BME280;15464;50.988;10.318;2022-08-21T10:06:36;98928.38;;;23.18;47.82
28181;BME280;15464;50.988;10.318;2022-08-21T10:09:21;98933.38;;;23.14;47.41
28181;BME280;15464;50.988;10.318;2022-08-21T10:19:26;98921.22;;;23.50;47.23
28181;BME280;15464;50.988;10.318;2022-08-21T10:24:31;98927.56;;;23.11;48.54
28181;BME280;15464;50.988;10.318;2022-08-21T10:35:12;98916.63;;;23.44;48.45
28181;BME280;15464;50.988;10.318;2022-08-21T10:40:25;98920.13;;;23.64;48.27
28181;BME280;15464;50.988;10.318;2022-08-21T10:47:59;98914.22;;;24.11;45.09
28181;BME280;15464;50.988;10.318;2022-08-21T10:55:31;98908.22;;;23.71;45.11
28181;BME280;15464;50.988;10.318;2022-08-21T10:58:14;98907.09;;;23.48;44.37
28181;BME280;15464;50.988;10.318;2022-08-21T11:00:47;98907.50;;;23.31;43.73
28181;BME280;15464;50.988;10.318;2022-08-21T11:03:17;98907.78;;;23.75;43.37
28181;BME280;15464;50.988;10.318;2022-08-21T11:08:23;98893.44;;;24.62;42.85
28181;BME280;15464;50.988;10.318;2022-08-21T11:10:52;98883.59;;;24.92;40.96
28181;BME280;15464;50.988;10.318;2022-08-21T11:13:40;98883.69;;;25.22;40.92
28181;BME280;15464;50.988;10.318;2022-08-21T11:18:37;98874.44;;;24.62;41.00
28181;BME280;15464;50.988;10.318;2022-08-21T11:23:53;98885.53;;;24.35;41.22
28181;BME280;15464;50.988;10.318;2022-08-21T11:26:41;98892.53;;;24.43;41.54
28181;BME280;15464;50.988;10.318;2022-08-21T11:29:13;98887.66;;;24.76;40.40
28181;BME280;15464;50.988;10.318;2022-08-21T11:31:50;98881.94;;;25.27;39.59
28181;BME280;15464;50.988;10.318;2022-08-21T11:52:39;98872.91;;;25.15;39.30
28181;BME280;15464;50.988;10.318;2022-08-21T11:57:39;98862.44;;;26.38;36.10
28181;BME280;15464;50.988;10.318;2022-08-21T12:00:28;98848.59;;;26.86;34.98
28181;BME280;15464;50.988;10.318;2022-08-21T12:02:58;98853.38;;;27.43;35.10
28181;BME280;15464;50.988;10.318;2022-08-21T12:05:36;98848.06;;;27.76;33.19
28181;BME280;15464;50.988;10.318;2022-08-21T12:08:11;98848.22;;;27.98;34.22
28181;BME280;15464;50.988;10.318;2022-08-21T12:10:40;98843.44;;;28.55;34.32
28181;BME280;15464;50.988;10.318;2022-08-21T12:13:08;98849.91;;;28.66;32.28
28181;BME280;15464;50.988;10.318;2022-08-21T12:15:37;98851.97;;;27.52;34.23
28181;BME280;15464;50.988;10.318;2022-08-21T12:18:05;98854.66;;;27.00;35.08
28181;BME280;15464;50.988;10.318;2022-08-21T12:20:34;98857.59;;;26.52;35.23
28181;BME280;15464;50.988;10.318;2022-08-21T12:23:04;98853.94;;;26.46;36.36
28181;BME280;15464;50.988;10.318;2022-08-21T12:25:39;98844.13;;;26.69;35.96
28181;BME280;15464;50.988;10.318;2022-08-21T12:28:11;98847.91;;;27.14;35.16
28181;BME280;15464;50.988;10.318;2022-08-21T12:30:39;98844.78;;;27.34;35.32
28181;BME280;15464;50.988;10.318;2022-08-21T12:33:18;98836.28;;;27.07;35.74
28181;BME280;15464;50.988;10.318;2022-08-21T12:35:46;98836.38;;;27.36;35.67
28181;BME280;15464;50.988;10.318;2022-08-21T12:38:22;98841.06;;;27.52;36.21
28181;BME280;15464;50.988;10.318;2022-08-21T12:40:54;98834.28;;;27.43;35.71
28181;BME280;15464;50.988;10.318;2022-08-21T12:43:25;98837.34;;;27.29;36.17
28181;BME280;15464;50.988;10.318;2022-08-21T12:45:53;98832.72;;;28.15;33.90
28181;BME280;15464;50.988;10.318;2022-08-21T12:50:51;98821.81;;;29.04;32.05
28181;BME280;15464;50.988;10.318;2022-08-21T12:53:29;98821.63;;;29.32;31.94
28181;BME280;15464;50.988;10.318;2022-08-21T12:55:56;98819.75;;;28.94;30.34
28181;BME280;15464;50.988;10.318;2022-08-21T12:58:28;98817.19;;;29.48;29.83
28181;BME280;15464;50.988;10.318;2022-08-21T13:01:02;98819.50;;;29.17;30.21
28181;BME280;15464;50.988;10.318;2022-08-21T13:03:29;98822.06;;;28.14;30.39
28181;BME280;15464;50.988;10.318;2022-08-21T13:05:56;98815.59;;;28.53;30.23
28181;BME280;15464;50.988;10.318;2022-08-21T13:08:24;98813.97;;;29.12;30.12
28181;BME280;15464;50.988;10.318;2022-08-21T13:10:56;98819.66;;;29.27;30.09
28181;BME280;15464;50.988;10.318;2022-08-21T13:13:24;98815.84;;;29.50;29.21
28181;BME280;15464;50.988;10.318;2022-08-21T13:16:11;98817.97;;;29.70;29.21
28181;BME280;15464;50.988;10.318;2022-08-21T13:18:51;98811.13;;;30.26;27.95
28181;BME280;15464;50.988;10.318;2022-08-21T13:21:19;98807.03;;;29.92;27.82
28181;BME280;15464;50.988;10.318;2022-08-21T13:23:46;98809.66;;;29.87;27.47
28181;BME280;15464;50.988;10.318;2022-08-21T13:26:23;98804.25;;;30.56;28.63
28181;BME280;15464;50.988;10.318;2022-08-21T13:28:49;98807.19;;;30.12;28.96
28181;BME280;15464;50.988;10.318;2022-08-21T13:31:18;98816.63;;;29.46;28.69
28181;BME280;15464;50.988;10.318;2022-08-21T13:33:47;98816.66;;;29.07;29.81
28181;BME280;15464;50.988;10.318;2022-08-21T13:36:16;98807.28;;;28.81;29.67
28181;BME280;15464;50.988;10.318;2022-08-21T13:38:44;98819.16;;;28.54;29.90
28181;BME280;15464;50.988;10.318;2022-08-21T13:41:25;98814.63;;;28.26;30.51
28181;BME280;15464;50.988;10.318;2022-08-21T13:43:58;98812.47;;;28.28;30.77
28181;BME280;15464;50.988;10.318;2022-08-21T13:46:26;98810.81;;;28.27;30.95
28181;BME280;15464;50.988;10.318;2022-08-21T13:48:54;98811.63;;;28.11;31.09
28181;BME280;15464;50.988;10.318;2022-08-21T13:51:21;98811.25;;;27.90;31.72
28181;BME280;15464;50.988;10.318;2022-08-21T13:53:49;98804.97;;;27.73;31.61
28181;BME280;15464;50.988;10.318;2022-08-21T13:56:23;98813.13;;;27.73;31.68
28181;BME280;15464;50.988;10.318;2022-08-21T13:58:52;98814.34;;;27.65;31.66
28181;BME280;15464;50.988;10.318;2022-08-21T14:01:30;98805.03;;;28.23;30.44
28181;BME280;15464;50.988;10.318;2022-08-21T14:04:01;98798.47;;;27.91;31.30
28181;BME280;15464;50.988;10.318;2022-08-21T14:06:32;98802.22;;;27.73;31.21
28181;BME280;15464;50.988;10.318;2022-08-21T14:09:00;98808.59;;;27.79;29.78
28181;BME280;15464;50.988;10.318;2022-08-21T14:11:31;98798.41;;;28.19;29.97
28181;BME280;15464;50.988;10.318;2022-08-21T14:14:00;98797.50;;;28.30;29.14
28181;BME280;15464;50.988;10.318;2022-08-21T14:16:29;98798.22;;;28.59;28.51
28181;BME280;15464;50.988;10.318;2022-08-21T14:19:12;98787.81;;;28.95;28.22
28181;BME280;15464;50.988;10.318;2022-08-21T14:21:43;98787.63;;;28.79;28.77